createdAt,value
2022-09-28T00:00:40.156Z,0.00
2022-09-28T00:01:40.471Z,0.00
2022-09-28T00:02:41.747Z,0.00
2022-09-28T00:03:40.858Z,0.00
2022-09-28T00:04:40.085Z,0.00
2022-09-28T00:05:40.301Z,0.00
2022-09-28T00:06:40.526Z,0.00
2022-09-28T00:07:40.758Z,0.00
2022-09-28T00:08:39.866Z,0.00
2022-09-28T00:09:40.139Z,0.00
2022-09-28T00:10:40.365Z,0.00
2022-09-28T00:11:40.605Z,0.00
2022-09-28T00:12:40.858Z,0.00
2022-09-28T00:13:40.069Z,0.00
2022-09-28T00:14:40.438Z,0.00
2022-09-28T00:15:40.581Z,0.00
2022-09-28T00:16:39.950Z,0.00
2022-09-28T00:17:40.061Z,0.00
2022-09-28T00:18:40.310Z,0.00
2022-09-28T00:19:40.583Z,0.00
2022-09-28T00:20:40.044Z,0.00
2022-09-28T00:21:40.021Z,0.00
2022-09-28T00:22:40.267Z,0.00
2022-09-28T00:23:40.514Z,0.00
2022-09-28T00:24:40.767Z,0.00
2022-09-28T00:25:40.001Z,0.00
2022-09-28T00:26:40.229Z,0.00
2022-09-28T00:27:40.472Z,0.00
2022-09-28T00:28:39.710Z,0.00
2022-09-28T00:29:39.959Z,0.00
2022-09-28T00:30:40.224Z,0.00
2022-09-28T00:31:40.554Z,0.00
2022-09-28T00:32:39.681Z,0.00
2022-09-28T00:33:39.936Z,0.00
2022-09-28T00:34:40.196Z,0.00
2022-09-28T00:35:40.453Z,0.00
2022-09-28T00:36:39.635Z,0.00
2022-09-28T00:37:39.863Z,0.04
2022-09-28T00:38:40.057Z,0.00
2022-09-28T00:39:40.273Z,0.00
2022-09-28T00:40:39.492Z,0.00
2022-09-28T00:41:40.819Z,0.00
2022-09-28T00:42:39.961Z,0.04
2022-09-28T00:43:40.208Z,0.00
2022-09-28T00:44:40.483Z,0.00
2022-09-28T00:45:39.737Z,0.00
2022-09-28T00:46:39.944Z,0.00
2022-09-28T00:47:40.277Z,0.00
2022-09-28T00:48:39.412Z,0.00
2022-09-28T00:49:39.671Z,0.00
2022-09-28T00:50:39.917Z,0.00
2022-09-28T00:51:40.180Z,0.00
2022-09-28T00:52:39.456Z,0.00
2022-09-28T00:53:39.747Z,0.00
2022-09-28T00:54:39.918Z,0.00
2022-09-28T00:55:40.177Z,0.00
2022-09-28T00:56:39.370Z,0.00
2022-09-28T00:57:39.633Z,0.00
2022-09-28T00:58:39.862Z,0.00
2022-09-28T00:59:41.970Z,0.00
2022-09-28T01:00:39.312Z,0.00
2022-09-28T01:01:39.568Z,0.00
2022-09-28T01:02:39.756Z,0.00
2022-09-28T01:03:40.004Z,0.00
2022-09-28T01:04:39.218Z,0.00
2022-09-28T01:05:39.454Z,0.00
2022-09-28T01:06:39.707Z,0.04
2022-09-28T01:07:39.957Z,0.00
2022-09-28T01:08:39.162Z,0.00
2022-09-28T01:09:39.759Z,0.00
2022-09-28T01:10:39.716Z,0.00
2022-09-28T01:11:39.875Z,0.00
2022-09-28T01:12:39.085Z,0.00
2022-09-28T01:13:39.344Z,0.00
2022-09-28T01:14:39.588Z,0.00
2022-09-28T01:15:40.057Z,0.00
2022-09-28T01:16:39.184Z,0.00
2022-09-28T01:17:39.351Z,0.00
2022-09-28T01:18:39.578Z,0.00
2022-09-28T01:20:39.035Z,0.00
2022-09-28T01:21:39.328Z,0.00
2022-09-28T01:22:39.537Z,0.00
2022-09-28T01:23:38.739Z,0.00
2022-09-28T01:24:38.996Z,0.00
2022-09-28T01:25:39.260Z,0.00
2022-09-28T01:26:39.592Z,0.00
2022-09-28T01:27:38.751Z,0.00
2022-09-28T01:28:39.009Z,0.00
2022-09-28T01:29:39.268Z,0.00
2022-09-28T01:30:39.698Z,0.00
2022-09-28T01:31:38.790Z,0.00
2022-09-28T01:32:39.050Z,0.00
2022-09-28T01:33:40.201Z,0.00
2022-09-28T01:34:39.520Z,0.00
2022-09-28T01:35:38.703Z,0.00
2022-09-28T01:36:39.922Z,0.00
2022-09-28T01:37:39.221Z,0.00
2022-09-28T01:38:39.576Z,0.04
2022-09-28T01:39:38.673Z,0.00
2022-09-28T01:40:38.956Z,0.00
2022-09-28T01:41:39.148Z,0.00
2022-09-28T01:42:39.471Z,0.00
2022-09-28T01:43:38.611Z,0.04
2022-09-28T01:44:38.848Z,0.00
2022-09-28T01:45:39.103Z,0.00
2022-09-28T01:46:39.317Z,0.00
2022-09-28T01:47:38.510Z,0.00
2022-09-28T01:48:38.790Z,0.04
2022-09-28T01:49:38.546Z,0.00
2022-09-28T01:50:38.788Z,0.00
2022-09-28T01:51:39.042Z,0.00
2022-09-28T01:52:39.270Z,0.00
2022-09-28T01:54:38.788Z,0.00
2022-09-28T01:55:38.972Z,0.00
2022-09-28T01:56:39.204Z,0.00
2022-09-28T01:57:38.409Z,0.00
2022-09-28T01:58:38.681Z,0.00
2022-09-28T01:59:38.931Z,0.00
2022-09-28T02:00:39.355Z,0.00
2022-09-28T02:01:38.449Z,0.00
2022-09-28T02:02:38.621Z,0.00
2022-09-28T02:03:38.891Z,0.00
2022-09-28T02:04:39.123Z,0.00
2022-09-28T02:05:38.419Z,0.00
2022-09-28T02:06:38.605Z,0.00
2022-09-28T02:08:39.132Z,0.00
2022-09-28T02:09:38.340Z,0.00
2022-09-28T02:10:38.628Z,0.00
2022-09-28T02:11:38.895Z,0.00
2022-09-28T02:12:39.127Z,0.00
2022-09-28T02:13:38.357Z,0.00
2022-09-28T02:14:38.641Z,0.00
2022-09-28T02:15:38.900Z,0.00
2022-09-28T02:16:38.366Z,0.00
2022-09-28T02:17:38.370Z,0.00
2022-09-28T02:18:38.653Z,0.00
2022-09-28T02:19:38.883Z,0.00
2022-09-28T02:20:38.095Z,0.04
2022-09-28T02:21:38.373Z,0.00
2022-09-28T02:22:38.638Z,0.00
2022-09-28T02:23:38.878Z,0.00
2022-09-28T02:24:38.097Z,0.00
2022-09-28T02:25:38.330Z,0.00
2022-09-28T02:26:38.587Z,0.00
2022-09-28T02:27:38.880Z,0.00
2022-09-28T02:28:38.041Z,0.00
2022-09-28T02:29:38.302Z,0.00
2022-09-28T02:30:38.559Z,0.00
2022-09-28T02:31:38.861Z,0.00
2022-09-28T02:32:38.017Z,0.00
2022-09-28T02:33:38.332Z,0.00
2022-09-28T02:34:38.578Z,0.00
2022-09-28T02:36:38.192Z,0.00
2022-09-28T02:37:37.889Z,0.04
2022-09-28T02:38:38.144Z,0.00
2022-09-28T02:39:38.423Z,0.00
2022-09-28T02:40:38.714Z,0.00
2022-09-28T02:41:37.864Z,0.00
2022-09-28T02:42:38.108Z,0.00
2022-09-28T02:43:38.384Z,0.00
2022-09-28T02:44:38.643Z,0.00
2022-09-28T02:45:37.916Z,0.00
2022-09-28T02:46:37.798Z,0.00
2022-09-28T02:47:39.072Z,0.00
2022-09-28T02:49:39.535Z,0.00
2022-09-28T02:50:37.698Z,0.00
2022-09-28T02:51:37.938Z,0.00
2022-09-28T02:53:38.429Z,0.00
2022-09-28T02:54:37.612Z,0.00
2022-09-28T02:55:38.062Z,0.00
2022-09-28T02:56:38.094Z,0.00
2022-09-28T02:57:39.193Z,0.04
2022-09-28T02:58:37.548Z,0.00
2022-09-28T02:59:37.814Z,0.00
2022-09-28T03:00:38.109Z,0.00
2022-09-28T03:01:38.457Z,0.00
2022-09-28T03:02:37.639Z,0.00
2022-09-28T03:03:37.835Z,0.00
2022-09-28T03:04:38.082Z,0.00
2022-09-28T03:05:38.324Z,0.00
2022-09-28T03:06:38.652Z,0.00
2022-09-28T03:07:37.787Z,0.04
2022-09-28T03:08:38.019Z,0.04
2022-09-28T03:09:38.270Z,0.00
2022-09-28T03:10:37.466Z,0.00
2022-09-28T03:11:37.723Z,0.00
2022-09-28T03:12:38.228Z,0.00
2022-09-28T03:13:39.201Z,0.00
2022-09-28T03:14:37.440Z,0.00
2022-09-28T03:15:37.704Z,0.00
2022-09-28T03:16:38.049Z,0.00
2022-09-28T03:17:38.604Z,0.00
2022-09-28T03:18:37.501Z,0.00
2022-09-28T03:19:37.794Z,0.00
2022-09-28T03:20:38.061Z,0.00
2022-09-28T03:21:37.324Z,0.00
2022-09-28T03:22:37.607Z,0.00
2022-09-28T03:23:37.925Z,0.00
2022-09-28T03:24:38.149Z,0.00
2022-09-28T03:25:37.378Z,0.00
2022-09-28T03:26:37.653Z,0.00
2022-09-28T03:27:37.914Z,0.00
2022-09-28T03:28:38.196Z,0.00
2022-09-28T03:29:37.446Z,0.00
2022-09-28T03:30:37.729Z,0.00
2022-09-28T03:31:38.066Z,0.00
2022-09-28T03:32:37.233Z,0.00
2022-09-28T03:33:37.512Z,0.00
2022-09-28T03:34:37.789Z,0.00
2022-09-28T03:35:38.068Z,0.00
2022-09-28T03:36:38.572Z,0.00
2022-09-28T03:37:37.978Z,0.00
2022-09-28T03:39:37.357Z,0.00
2022-09-28T03:40:37.697Z,0.00
2022-09-28T03:41:37.865Z,0.00
2022-09-28T03:42:37.062Z,0.00
2022-09-28T03:43:37.306Z,0.00
2022-09-28T03:44:37.616Z,0.00
2022-09-28T03:45:37.836Z,0.00
2022-09-28T03:46:37.018Z,0.00
2022-09-28T03:47:37.294Z,0.00
2022-09-28T03:48:37.568Z,0.04
2022-09-28T03:49:37.827Z,0.00
2022-09-28T03:50:38.078Z,0.00
2022-09-28T03:53:37.793Z,0.00
2022-09-28T03:54:36.998Z,0.00
2022-09-28T03:55:37.312Z,0.00
2022-09-28T03:56:37.507Z,0.00
2022-09-28T03:57:36.715Z,0.00
2022-09-28T03:58:36.961Z,0.00
2022-09-28T03:59:37.211Z,0.00
2022-09-28T04:00:37.510Z,0.00
2022-09-28T04:01:37.822Z,0.00
2022-09-28T04:02:37.024Z,0.00
2022-09-28T04:03:38.066Z,0.00
2022-09-28T04:04:37.364Z,0.00
2022-09-28T04:05:37.628Z,0.00
2022-09-28T04:06:36.828Z,0.00
2022-09-28T04:07:37.058Z,0.00
2022-09-28T04:08:37.285Z,0.00
2022-09-28T04:09:37.537Z,0.00
2022-09-28T04:10:36.755Z,0.00
2022-09-28T04:11:53.136Z,0.00
2022-09-28T04:12:38.254Z,0.04
2022-09-28T04:13:37.503Z,0.00
2022-09-28T04:14:36.902Z,0.00
2022-09-28T04:15:36.988Z,0.00
2022-09-28T04:16:37.272Z,0.00
2022-09-28T04:17:40.055Z,0.00
2022-09-28T04:18:36.687Z,0.00
2022-09-28T04:19:36.948Z,0.00
2022-09-28T04:20:37.195Z,0.00
2022-09-28T04:21:37.724Z,0.00
2022-09-28T04:22:36.628Z,0.00
2022-09-28T04:23:36.855Z,0.00
2022-09-28T04:24:37.098Z,0.00
2022-09-28T04:25:37.326Z,0.00
2022-09-28T04:26:36.531Z,0.00
2022-09-28T04:27:36.827Z,0.00
2022-09-28T04:28:37.049Z,0.00
2022-09-28T04:29:37.276Z,0.00
2022-09-28T04:30:36.500Z,0.00
2022-09-28T04:31:36.821Z,0.00
2022-09-28T04:32:37.005Z,0.00
2022-09-28T04:33:37.266Z,0.00
2022-09-28T04:34:39.611Z,0.00
2022-09-28T04:35:37.726Z,0.00
2022-09-28T04:36:36.978Z,0.00
2022-09-28T04:37:37.249Z,0.05
2022-09-28T04:38:52.253Z,0.00
2022-09-28T04:39:37.729Z,0.02
2022-09-28T04:40:37.083Z,0.00
2022-09-28T04:41:36.217Z,0.02
2022-09-28T04:42:36.477Z,0.02
2022-09-28T04:43:36.726Z,0.00
2022-09-28T04:44:36.978Z,0.01
2022-09-28T04:45:37.268Z,0.01
2022-09-28T04:46:36.434Z,0.01
2022-09-28T04:47:36.672Z,0.01
2022-09-28T04:48:36.938Z,0.01
2022-09-28T04:49:37.214Z,0.01
2022-09-28T04:50:36.393Z,0.02
2022-09-28T04:51:36.668Z,0.02
2022-09-28T04:52:37.066Z,0.02
2022-09-28T04:53:36.126Z,0.02
2022-09-28T04:54:36.372Z,0.02
2022-09-28T04:55:36.664Z,0.02
2022-09-28T04:56:36.865Z,0.03
2022-09-28T04:57:37.105Z,0.04
2022-09-28T04:58:36.298Z,0.03
2022-09-28T04:59:36.539Z,0.04
2022-09-28T05:00:36.811Z,0.05
2022-09-28T05:01:37.126Z,0.18
2022-09-28T05:02:36.305Z,0.15
2022-09-28T05:03:36.497Z,0.11
2022-09-28T05:04:36.754Z,0.14
2022-09-28T05:05:36.123Z,0.17
2022-09-28T05:06:36.244Z,0.20
2022-09-28T05:07:36.552Z,0.26
2022-09-28T05:08:36.682Z,0.33
2022-09-28T05:09:38.586Z,0.44
2022-09-28T05:10:36.243Z,0.53
2022-09-28T05:11:36.447Z,0.65
2022-09-28T05:12:36.648Z,0.80
2022-09-28T05:13:35.841Z,0.95
2022-09-28T05:14:36.097Z,1.07
2022-09-28T05:15:36.362Z,1.13
2022-09-28T05:16:36.668Z,1.20
2022-09-28T05:17:36.012Z,1.28
2022-09-28T05:18:36.136Z,1.37
2022-09-28T05:19:36.396Z,1.45
2022-09-28T05:20:36.649Z,1.63
2022-09-28T05:21:35.857Z,1.87
2022-09-28T05:22:36.520Z,2.19
2022-09-28T05:23:36.386Z,2.55
2022-09-28T05:24:35.617Z,2.76
2022-09-28T05:25:35.876Z,3.53
2022-09-28T05:26:36.157Z,4.41
2022-09-28T05:27:36.415Z,4.78
2022-09-28T05:28:35.680Z,5.51
2022-09-28T05:29:35.879Z,5.61
2022-09-28T05:30:36.149Z,6.29
2022-09-28T05:31:36.449Z,6.95
2022-09-28T05:32:35.650Z,7.76
2022-09-28T05:33:35.925Z,8.47
2022-09-28T05:34:36.176Z,9.13
2022-09-28T05:35:36.390Z,9.57
2022-09-28T05:36:35.606Z,10.22
2022-09-28T05:37:35.863Z,11.44
2022-09-28T05:38:36.110Z,13.36
2022-09-28T05:39:36.393Z,15.42
2022-09-28T05:40:35.633Z,16.63
2022-09-28T05:41:35.819Z,18.49
2022-09-28T05:42:36.073Z,19.77
2022-09-28T05:43:36.337Z,19.47
2022-09-28T05:44:35.521Z,18.32
2022-09-28T05:45:35.848Z,14.85
2022-09-28T05:46:36.061Z,13.10
2022-09-28T05:47:36.293Z,13.30
2022-09-28T05:48:35.496Z,13.54
2022-09-28T05:49:35.749Z,14.82
2022-09-28T05:50:36.001Z,16.41
2022-09-28T05:51:36.268Z,17.27
2022-09-28T05:52:35.484Z,19.07
2022-09-28T05:53:35.719Z,21.28
2022-09-28T05:54:35.996Z,22.20
2022-09-28T05:55:35.186Z,22.62
2022-09-28T05:56:35.574Z,23.83
2022-09-28T05:57:35.728Z,23.84
2022-09-28T05:58:35.988Z,25.03
2022-09-28T05:59:35.190Z,26.24
2022-09-28T06:00:35.442Z,26.69
2022-09-28T06:01:35.756Z,27.77
2022-09-28T06:02:35.995Z,27.40
2022-09-28T06:03:35.110Z,25.92
2022-09-28T06:04:35.377Z,27.11
2022-09-28T06:05:35.619Z,29.61
2022-09-28T06:06:35.854Z,29.01
2022-09-28T06:07:35.369Z,27.82
2022-09-28T06:08:36.358Z,28.37
2022-09-28T06:09:35.595Z,30.50
2022-09-28T06:10:35.856Z,32.49
2022-09-28T06:11:35.070Z,35.91
2022-09-28T06:12:35.340Z,41.90
2022-09-28T06:13:35.630Z,46.57
2022-09-28T06:14:35.937Z,45.46
2022-09-28T06:15:35.088Z,47.01
2022-09-28T06:16:37.364Z,51.51
2022-09-28T06:17:35.599Z,57.00
2022-09-28T06:18:35.862Z,65.15
2022-09-28T06:19:35.200Z,69.07
2022-09-28T06:20:35.379Z,68.52
2022-09-28T06:21:35.622Z,65.48
2022-09-28T06:22:34.855Z,65.84
2022-09-28T06:23:35.110Z,70.37
2022-09-28T06:24:36.155Z,69.69
2022-09-28T06:25:35.635Z,70.90
2022-09-28T06:26:34.905Z,74.04
2022-09-28T06:27:35.120Z,79.40
2022-09-28T06:28:35.402Z,84.11
2022-09-28T06:29:35.665Z,89.11
2022-09-28T06:30:35.049Z,92.08
2022-09-28T06:31:35.186Z,99.72
2022-09-28T06:32:36.201Z,106.32
2022-09-28T06:33:35.662Z,107.72
2022-09-28T06:34:34.900Z,102.39
2022-09-28T06:35:35.186Z,97.99
2022-09-28T06:36:35.425Z,92.78
2022-09-28T06:37:35.667Z,89.39
2022-09-28T06:38:34.868Z,88.44
2022-09-28T06:39:35.129Z,93.08
2022-09-28T06:40:35.529Z,98.62
2022-09-28T06:41:34.612Z,105.21
2022-09-28T06:42:34.858Z,109.72
2022-09-28T06:43:35.097Z,111.59
2022-09-28T06:44:35.360Z,116.65
2022-09-28T06:45:34.597Z,123.82
2022-09-28T06:46:34.965Z,135.58
2022-09-28T06:47:35.086Z,152.06
2022-09-28T06:48:35.371Z,163.00
2022-09-28T06:49:34.570Z,168.32
2022-09-28T06:50:34.855Z,185.20
2022-09-28T06:51:35.109Z,170.96
2022-09-28T06:52:35.388Z,159.38
2022-09-28T06:53:34.602Z,157.80
2022-09-28T06:54:34.898Z,156.60
2022-09-28T06:55:35.157Z,156.61
2022-09-28T06:56:35.454Z,153.05
2022-09-28T06:57:34.669Z,150.88
2022-09-28T06:58:34.945Z,141.94
2022-09-28T06:59:35.202Z,134.28
2022-09-28T07:00:34.443Z,123.25
2022-09-28T07:01:34.722Z,113.62
2022-09-28T07:02:35.061Z,109.39
2022-09-28T07:03:35.171Z,110.37
2022-09-28T07:04:34.427Z,109.22
2022-09-28T07:05:34.645Z,111.56
2022-09-28T07:06:34.909Z,115.83
2022-09-28T07:07:35.192Z,121.62
2022-09-28T07:08:34.399Z,122.18
2022-09-28T07:09:37.299Z,114.90
2022-09-28T07:10:35.919Z,117.21
2022-09-28T07:11:35.171Z,123.55
2022-09-28T07:12:34.428Z,135.18
2022-09-28T07:13:49.614Z,143.89
2022-09-28T07:14:47.357Z,157.05
2022-09-28T07:15:35.130Z,164.81
2022-09-28T07:16:58.195Z,174.50
2022-09-28T07:17:44.276Z,186.99
2022-09-28T07:18:35.927Z,189.14
2022-09-28T07:19:34.153Z,184.04
2022-09-28T07:20:42.440Z,180.07
2022-09-28T07:21:35.640Z,174.96
2022-09-28T07:22:42.800Z,178.65
2022-09-28T07:23:46.629Z,170.03
2022-09-28T07:24:35.390Z,172.72
2022-09-28T07:25:34.596Z,175.34
2022-09-28T07:26:35.829Z,176.95
2022-09-28T07:27:35.110Z,177.80
2022-09-28T07:28:34.319Z,179.50
2022-09-28T07:29:34.808Z,180.89
2022-09-28T07:30:34.864Z,179.68
2022-09-28T07:31:34.047Z,178.78
2022-09-28T07:32:34.306Z,180.89
2022-09-28T07:33:34.564Z,178.12
2022-09-28T07:34:34.795Z,177.61
2022-09-28T07:35:35.132Z,176.39
2022-09-28T07:36:34.262Z,175.49
2022-09-28T07:37:34.513Z,176.41
2022-09-28T07:38:34.731Z,172.46
2022-09-28T07:39:33.937Z,169.02
2022-09-28T07:40:34.257Z,164.72
2022-09-28T07:41:34.520Z,163.74
2022-09-28T07:42:34.729Z,169.86
2022-09-28T07:43:33.923Z,176.91
2022-09-28T07:44:34.191Z,179.42
2022-09-28T07:45:34.495Z,183.23
2022-09-28T07:46:34.725Z,189.91
2022-09-28T07:47:35.304Z,189.73
2022-09-28T07:48:34.143Z,190.48
2022-09-28T07:49:34.369Z,194.80
2022-09-28T07:50:34.649Z,201.86
2022-09-28T07:51:33.835Z,205.96
2022-09-28T07:52:34.151Z,205.87
2022-09-28T07:53:34.315Z,203.23
2022-09-28T07:54:34.572Z,205.18
2022-09-28T07:55:33.842Z,208.00
2022-09-28T07:56:34.017Z,210.37
2022-09-28T07:57:34.454Z,214.05
2022-09-28T07:58:34.489Z,219.33
2022-09-28T07:59:33.707Z,224.49
2022-09-28T08:00:34.439Z,226.62
2022-09-28T08:01:34.277Z,225.43
2022-09-28T08:02:34.555Z,223.20
2022-09-28T08:03:33.669Z,222.21
2022-09-28T08:04:33.887Z,223.13
2022-09-28T08:05:34.096Z,225.10
2022-09-28T08:06:34.363Z,226.76
2022-09-28T08:07:33.553Z,224.12
2022-09-28T08:08:33.806Z,222.35
2022-09-28T08:09:36.621Z,222.71
2022-09-28T08:10:34.318Z,210.08
2022-09-28T08:11:33.479Z,186.73
2022-09-28T08:12:33.733Z,178.08
2022-09-28T08:13:33.953Z,182.11
2022-09-28T08:14:34.216Z,189.44
2022-09-28T08:15:34.391Z,190.04
2022-09-28T08:16:33.654Z,185.39
2022-09-28T08:17:33.806Z,182.74
2022-09-28T08:18:34.056Z,187.59
2022-09-28T08:19:34.327Z,195.42
2022-09-28T08:20:33.466Z,200.47
2022-09-28T08:21:33.700Z,204.84
2022-09-28T08:22:33.935Z,208.38
2022-09-28T08:23:34.164Z,203.37
2022-09-28T08:24:33.375Z,197.72
2022-09-28T08:25:33.625Z,203.34
2022-09-28T08:26:33.822Z,218.54
2022-09-28T08:27:34.083Z,242.53
2022-09-28T08:28:33.286Z,248.35
2022-09-28T08:29:33.533Z,215.80
2022-09-28T08:30:34.048Z,216.84
2022-09-28T08:31:34.037Z,225.12
2022-09-28T08:32:33.235Z,237.84
2022-09-28T08:33:33.479Z,251.20
2022-09-28T08:34:33.731Z,258.96
2022-09-28T08:35:34.032Z,257.42
2022-09-28T08:36:34.243Z,251.59
2022-09-28T08:37:33.440Z,259.15
2022-09-28T08:38:33.680Z,284.98
2022-09-28T08:39:33.902Z,335.31
2022-09-28T08:40:33.202Z,391.08
2022-09-28T08:41:33.448Z,392.82
2022-09-28T08:42:33.600Z,382.55
2022-09-28T08:43:33.835Z,328.51
2022-09-28T08:44:34.094Z,306.10
2022-09-28T08:45:33.233Z,309.37
2022-09-28T08:46:33.487Z,338.73
2022-09-28T08:47:33.239Z,391.79
2022-09-28T08:48:33.432Z,403.28
2022-09-28T08:49:33.875Z,365.69
2022-09-28T08:50:33.927Z,337.39
2022-09-28T08:51:33.127Z,352.11
2022-09-28T08:52:33.425Z,356.42
2022-09-28T08:53:33.598Z,407.07
2022-09-28T08:54:33.853Z,435.50
2022-09-28T08:55:33.026Z,460.37
2022-09-28T08:56:33.274Z,467.38
2022-09-28T08:57:33.519Z,498.47
2022-09-28T08:58:33.771Z,491.63
2022-09-28T08:59:32.965Z,457.26
2022-09-28T09:00:33.227Z,446.66
2022-09-28T09:01:33.534Z,416.78
2022-09-28T09:02:33.926Z,358.96
2022-09-28T09:03:32.935Z,298.06
2022-09-28T09:04:33.164Z,262.48
2022-09-28T09:05:33.383Z,256.37
2022-09-28T09:06:33.645Z,264.21
2022-09-28T09:07:32.841Z,266.66
2022-09-28T09:08:33.095Z,290.94
2022-09-28T09:09:34.366Z,328.45
2022-09-28T09:10:33.538Z,313.12
2022-09-28T09:11:33.792Z,353.76
2022-09-28T09:12:33.036Z,393.04
2022-09-28T09:13:33.265Z,493.46
2022-09-28T09:14:33.537Z,502.86
2022-09-28T09:15:32.756Z,524.90
2022-09-28T09:16:33.006Z,538.85
2022-09-28T09:17:33.173Z,560.46
2022-09-28T09:18:33.456Z,565.39
2022-09-28T09:19:33.681Z,563.08
2022-09-28T09:20:32.843Z,542.60
2022-09-28T09:21:33.056Z,580.26
2022-09-28T09:22:33.304Z,595.73
2022-09-28T09:23:33.544Z,595.64
2022-09-28T09:24:32.746Z,606.47
2022-09-28T09:25:37.759Z,559.23
2022-09-28T09:26:34.227Z,578.71
2022-09-28T09:27:33.489Z,590.50
2022-09-28T09:28:32.731Z,588.87
2022-09-28T09:29:33.184Z,587.06
2022-09-28T09:30:33.181Z,607.88
2022-09-28T09:31:33.420Z,646.02
2022-09-28T09:32:32.619Z,692.69
2022-09-28T09:33:32.853Z,785.35
2022-09-28T09:34:33.080Z,727.04
2022-09-28T09:35:33.564Z,571.24
2022-09-28T09:36:32.521Z,501.30
2022-09-28T09:37:32.777Z,462.09
2022-09-28T09:38:33.029Z,444.65
2022-09-28T09:39:33.274Z,435.24
2022-09-28T09:40:32.491Z,419.02
2022-09-28T09:41:32.881Z,399.14
2022-09-28T09:42:32.966Z,388.65
2022-09-28T09:43:33.214Z,376.89
2022-09-28T09:44:32.433Z,368.43
2022-09-28T09:45:32.648Z,369.71
2022-09-28T09:46:32.892Z,375.14
2022-09-28T09:47:33.113Z,400.91
2022-09-28T09:48:32.285Z,426.56
2022-09-28T09:49:32.509Z,444.59
2022-09-28T09:50:32.747Z,464.13
2022-09-28T09:51:32.966Z,474.43
2022-09-28T09:53:36.196Z,500.27
2022-09-28T09:54:33.596Z,513.15
2022-09-28T09:55:32.855Z,523.47
2022-09-28T09:56:33.077Z,515.09
2022-09-28T09:57:32.271Z,484.75
2022-09-28T09:58:32.500Z,478.13
2022-09-28T09:59:32.693Z,495.94
2022-09-28T10:00:32.927Z,503.09
2022-09-28T10:01:32.108Z,502.37
2022-09-28T10:02:32.418Z,490.34
2022-09-28T10:03:32.551Z,480.83
2022-09-28T10:04:32.777Z,474.59
2022-09-28T10:05:32.987Z,479.36
2022-09-28T10:06:32.208Z,482.31
2022-09-28T10:07:32.419Z,477.41
2022-09-28T10:08:32.627Z,483.01
2022-09-28T10:09:32.843Z,490.40
2022-09-28T10:10:32.037Z,499.97
2022-09-28T10:11:32.285Z,514.00
2022-09-28T10:12:32.487Z,516.50
2022-09-28T10:13:32.746Z,514.77
2022-09-28T10:14:31.911Z,506.44
2022-09-28T10:15:33.581Z,487.02
2022-09-28T10:16:32.369Z,473.29
2022-09-28T10:17:32.566Z,453.60
2022-09-28T10:18:31.844Z,436.33
2022-09-28T10:19:32.213Z,417.17
2022-09-28T10:20:32.352Z,406.92
2022-09-28T10:21:32.509Z,402.40
2022-09-28T10:22:31.679Z,397.79
2022-09-28T10:23:32.947Z,394.80
2022-09-28T10:24:32.142Z,396.18
2022-09-28T10:25:32.418Z,390.48
2022-09-28T10:26:32.571Z,370.33
2022-09-28T10:27:31.791Z,331.83
2022-09-28T10:28:32.007Z,326.86
2022-09-28T10:29:32.241Z,330.64
2022-09-28T10:30:32.547Z,328.16
2022-09-28T10:31:32.723Z,308.56
2022-09-28T10:32:31.895Z,290.04
2022-09-28T10:33:32.144Z,296.83
2022-09-28T10:34:32.381Z,323.49
2022-09-28T10:35:32.577Z,368.58
2022-09-28T10:36:32.005Z,391.26
2022-09-28T10:37:32.029Z,408.28
2022-09-28T10:38:32.281Z,416.10
2022-09-28T10:39:32.512Z,406.82
2022-09-28T10:40:31.752Z,385.02
2022-09-28T10:41:31.912Z,378.45
2022-09-28T10:42:32.214Z,377.29
2022-09-28T10:43:32.405Z,399.06
2022-09-28T10:44:31.577Z,445.83
2022-09-28T10:45:31.781Z,487.19
2022-09-28T10:46:32.074Z,502.60
2022-09-28T10:47:32.258Z,494.25
2022-09-28T10:48:32.494Z,471.40
2022-09-28T10:49:31.681Z,438.18
2022-09-28T10:50:31.903Z,455.97
2022-09-28T10:51:32.122Z,474.18
2022-09-28T10:52:31.290Z,495.05
2022-09-28T10:53:31.560Z,514.17
2022-09-28T10:54:31.761Z,530.59
2022-09-28T10:55:31.979Z,546.97
2022-09-28T10:56:32.205Z,516.51
2022-09-28T10:57:31.359Z,503.63
2022-09-28T10:58:31.560Z,492.35
2022-09-28T10:59:31.795Z,486.04
2022-09-28T11:00:31.987Z,481.58
2022-09-28T11:01:32.259Z,469.82
2022-09-28T11:02:35.693Z,452.23
2022-09-28T11:03:31.587Z,437.94
2022-09-28T11:04:32.756Z,390.09
2022-09-28T11:05:32.013Z,355.68
2022-09-28T11:06:31.163Z,311.21
2022-09-28T11:07:31.427Z,288.89
2022-09-28T11:08:31.596Z,274.45
2022-09-28T11:09:31.770Z,265.31
2022-09-28T11:10:31.955Z,260.28
2022-09-28T11:11:32.244Z,256.46
2022-09-28T11:12:31.261Z,260.26
2022-09-28T11:13:31.455Z,285.10
2022-09-28T11:14:31.773Z,312.77
2022-09-28T11:15:31.819Z,338.32
2022-09-28T11:16:32.049Z,363.99
2022-09-28T11:17:31.218Z,381.87
2022-09-28T11:18:31.349Z,369.85
2022-09-28T11:19:31.543Z,334.06
2022-09-28T11:20:31.684Z,322.28
2022-09-28T11:21:31.897Z,335.82
2022-09-28T11:22:31.038Z,381.68
2022-09-28T11:23:31.412Z,415.26
2022-09-28T11:24:31.382Z,448.41
2022-09-28T11:25:31.566Z,462.29
2022-09-28T11:26:31.745Z,473.52
2022-09-28T11:27:31.925Z,465.61
2022-09-28T11:28:31.052Z,463.33
2022-09-28T11:29:31.262Z,980.84
2022-09-28T11:30:31.496Z,1114.02
2022-09-28T11:31:31.601Z,633.04
2022-09-28T11:32:31.749Z,488.31
2022-09-28T11:33:30.866Z,427.66
2022-09-28T11:34:57.392Z,391.25
2022-09-28T11:35:32.483Z,372.37
2022-09-28T11:36:31.385Z,336.17
2022-09-28T11:37:31.549Z,316.70
2022-09-28T11:38:31.751Z,314.74
2022-09-28T11:39:30.871Z,375.74
2022-09-28T11:40:31.125Z,429.14
2022-09-28T11:41:31.819Z,472.13
2022-09-28T11:42:31.411Z,509.67
2022-09-28T11:43:31.545Z,545.54
2022-09-28T11:44:32.691Z,584.04
2022-09-28T11:45:30.827Z,633.09
2022-09-28T11:46:31.080Z,681.17
2022-09-28T11:47:31.162Z,709.06
2022-09-28T11:48:31.301Z,714.23
2022-09-28T11:49:31.484Z,709.09
2022-09-28T11:50:30.622Z,695.03
2022-09-28T11:51:30.778Z,760.38
2022-09-28T11:52:30.972Z,739.97
2022-09-28T11:53:31.090Z,700.67
2022-09-28T11:54:31.273Z,659.24
2022-09-28T11:55:31.437Z,627.65
2022-09-28T11:56:30.552Z,591.66
2022-09-28T11:57:30.711Z,530.84
2022-09-28T11:58:30.915Z,765.20
2022-09-28T11:59:31.042Z,526.82
2022-09-28T12:00:31.283Z,500.21
2022-09-28T12:01:31.390Z,778.86
2022-09-28T12:02:30.581Z,1084.31
2022-09-28T12:03:30.895Z,1173.64
2022-09-28T12:04:31.085Z,1195.92
2022-09-28T12:05:31.029Z,577.83
2022-09-28T12:06:31.188Z,543.28
2022-09-28T12:07:31.364Z,1208.37
2022-09-28T12:08:30.464Z,545.00
2022-09-28T12:09:31.715Z,412.73
2022-09-28T12:10:30.765Z,368.33
2022-09-28T12:11:30.922Z,334.45
2022-09-28T12:12:32.036Z,338.63
2022-09-28T12:13:30.234Z,354.94
2022-09-28T12:14:30.348Z,389.17
2022-09-28T12:15:38.221Z,399.73
2022-09-28T12:17:31.842Z,396.07
2022-09-28T12:18:30.905Z,377.87
2022-09-28T12:19:31.060Z,328.50
2022-09-28T12:20:31.344Z,292.16
2022-09-28T12:21:30.279Z,262.96
2022-09-28T12:22:30.451Z,240.29
2022-09-28T12:23:30.615Z,223.30
2022-09-28T12:24:30.703Z,209.62
2022-09-28T12:25:30.900Z,201.84
2022-09-28T12:26:35.834Z,203.14
2022-09-28T12:27:31.217Z,210.13
2022-09-28T12:28:30.380Z,218.40
2022-09-28T12:29:30.523Z,225.79
2022-09-28T12:30:30.690Z,232.49
2022-09-28T12:31:30.823Z,240.58
2022-09-28T12:32:31.022Z,250.14
2022-09-28T12:33:31.195Z,258.42
2022-09-28T12:34:30.297Z,260.19
2022-09-28T12:35:30.455Z,257.07
2022-09-28T12:36:30.631Z,250.03
2022-09-28T12:37:30.880Z,239.66
2022-09-28T12:38:31.088Z,232.38
2022-09-28T12:39:46.723Z,229.17
2022-09-28T12:40:36.552Z,226.45
2022-09-28T12:41:30.402Z,224.97
2022-09-28T12:42:30.568Z,225.68
2022-09-28T12:43:30.715Z,227.52
2022-09-28T12:44:29.968Z,231.73
2022-09-28T12:45:38.472Z,239.11
2022-09-28T12:46:31.258Z,247.97
2022-09-28T12:47:30.297Z,255.51
2022-09-28T12:48:30.525Z,258.48
2022-09-28T12:50:40.820Z,252.75
2022-09-28T12:51:31.007Z,246.07
2022-09-28T12:52:30.164Z,238.50
2022-09-28T12:53:30.258Z,230.69
2022-09-28T12:54:30.418Z,225.00
2022-09-28T12:55:30.641Z,220.86
2022-09-28T12:56:29.708Z,219.25
2022-09-28T12:57:30.076Z,219.66
2022-09-28T12:58:30.038Z,221.41
2022-09-28T12:59:30.218Z,223.53
2022-09-28T13:00:30.374Z,225.26
2022-09-28T13:01:30.605Z,225.98
2022-09-28T13:02:30.742Z,224.26